sensor_id;sensor_type;location;lat;lon;timestamp;temperature;humidity
20288;DHT22;10303;51.960;8.372;2022-09-09T00:05:09;19.10;99.90
20288;DHT22;10303;51.960;8.372;2022-09-09T00:07:50;19.20;99.90
20288;DHT22;10303;51.960;8.372;2022-09-09T00:13:31;19.20;99.90
20288;DHT22;10303;51.960;8.372;2022-09-09T00:16:25;19.20;99.90
20288;DHT22;10303;51.960;8.372;2022-09-09T00:22:20;19.20;99.90
20288;DHT22;10303;51.960;8.372;2022-09-09T00:25:14;19.20;99.90
20288;DHT22;10303;51.960;8.372;2022-09-09T00:27:48;19.20;99.90
20288;DHT22;10303;51.960;8.372;2022-09-09T00:30:25;19.20;99.90
20288;DHT22;10303;51.960;8.372;2022-09-09T00:33:00;19.20;99.90
20288;DHT22;10303;51.960;8.372;2022-09-09T00:35:34;19.20;99.90
20288;DHT22;10303;51.960;8.372;2022-09-09T00:38:14;19.30;99.90
20288;DHT22;10303;51.960;8.372;2022-09-09T00:41:10;19.30;99.90
20288;DHT22;10303;51.960;8.372;2022-09-09T00:44:02;19.30;99.90
20288;DHT22;10303;51.960;8.372;2022-09-09T00:58:38;19.30;99.90
20288;DHT22;10303;51.960;8.372;2022-09-09T01:01:14;19.40;99.90
20288;DHT22;10303;51.960;8.372;2022-09-09T01:03:52;19.40;99.90
20288;DHT22;10303;51.960;8.372;2022-09-09T01:06:32;19.40;99.90
20288;DHT22;10303;51.960;8.372;2022-09-09T01:09:30;19.40;99.90
20288;DHT22;10303;51.960;8.372;2022-09-09T01:12:15;19.40;99.90
20288;DHT22;10303;51.960;8.372;2022-09-09T01:14:50;19.40;99.90
20288;DHT22;10303;51.960;8.372;2022-09-09T01:17:26;19.50;99.90
20288;DHT22;10303;51.960;8.372;2022-09-09T01:23:21;19.50;99.90
20288;DHT22;10303;51.960;8.372;2022-09-09T01:29:02;19.60;99.90
20288;DHT22;10303;51.960;8.372;2022-09-09T01:31:52;19.60;99.90
20288;DHT22;10303;51.960;8.372;2022-09-09T01:34:28;19.60;99.90
20288;DHT22;10303;51.960;8.372;2022-09-09T01:37:06;19.60;99.90
20288;DHT22;10303;51.960;8.372;2022-09-09T01:39:38;19.60;99.90
20288;DHT22;10303;51.960;8.372;2022-09-09T01:42:13;19.60;99.90
20288;DHT22;10303;51.960;8.372;2022-09-09T01:44:41;19.60;99.90
20288;DHT22;10303;51.960;8.372;2022-09-09T01:47:08;19.70;99.90
20288;DHT22;10303;51.960;8.372;2022-09-09T01:49:43;19.70;99.90
20288;DHT22;10303;51.960;8.372;2022-09-09T01:52:19;19.70;99.90
20288;DHT22;10303;51.960;8.372;2022-09-09T01:54:45;19.70;99.90
20288;DHT22;10303;51.960;8.372;2022-09-09T01:57:29;19.70;99.90
20288;DHT22;10303;51.960;8.372;2022-09-09T02:00:08;19.70;99.90
20288;DHT22;10303;51.960;8.372;2022-09-09T02:03:08;19.70;99.90
20288;DHT22;10303;51.960;8.372;2022-09-09T02:06:00;19.70;99.90
20288;DHT22;10303;51.960;8.372;2022-09-09T02:08:46;19.70;99.90
20288;DHT22;10303;51.960;8.372;2022-09-09T02:11:24;19.70;99.90
20288;DHT22;10303;51.960;8.372;2022-09-09T02:14:12;19.70;99.90
20288;DHT22;10303;51.960;8.372;2022-09-09T02:16:54;19.70;99.90
20288;DHT22;10303;51.960;8.372;2022-09-09T02:19:42;19.70;99.90
20288;DHT22;10303;51.960;8.372;2022-09-09T02:22:33;19.60;99.90
20288;DHT22;10303;51.960;8.372;2022-09-09T02:25:03;19.70;99.90
20288;DHT22;10303;51.960;8.372;2022-09-09T02:27:33;19.60;99.90
20288;DHT22;10303;51.960;8.372;2022-09-09T02:30:01;19.60;99.90
20288;DHT22;10303;51.960;8.372;2022-09-09T02:32:43;19.70;99.90
20288;DHT22;10303;51.960;8.372;2022-09-09T02:35:17;19.70;99.90
20288;DHT22;10303;51.960;8.372;2022-09-09T02:37:47;19.70;99.90
20288;DHT22;10303;51.960;8.372;2022-09-09T02:40:16;19.70;99.90
20288;DHT22;10303;51.960;8.372;2022-09-09T02:42:48;19.70;99.90
20288;DHT22;10303;51.960;8.372;2022-09-09T02:45:19;19.70;99.90
20288;DHT22;10303;51.960;8.372;2022-09-09T02:48:21;19.70;99.90
20288;DHT22;10303;51.960;8.372;2022-09-09T02:51:10;19.70;99.90
20288;DHT22;10303;51.960;8.372;2022-09-09T02:57:21;19.70;99.90
20288;DHT22;10303;51.960;8.372;2022-09-09T02:59:50;19.70;99.90
20288;DHT22;10303;51.960;8.372;2022-09-09T03:02:18;19.70;99.90
20288;DHT22;10303;51.960;8.372;2022-09-09T03:04:49;19.70;99.90
20288;DHT22;10303;51.960;8.372;2022-09-09T03:07:20;19.70;99.90
20288;DHT22;10303;51.960;8.372;2022-09-09T03:09:48;19.70;99.90
20288;DHT22;10303;51.960;8.372;2022-09-09T03:12:15;19.70;99.90
20288;DHT22;10303;51.960;8.372;2022-09-09T03:14:42;19.60;99.90
20288;DHT22;10303;51.960;8.372;2022-09-09T03:17:11;19.70;99.90
20288;DHT22;10303;51.960;8.372;2022-09-09T03:19:44;19.60;99.90
20288;DHT22;10303;51.960;8.372;2022-09-09T03:22:12;19.60;99.90
20288;DHT22;10303;51.960;8.372;2022-09-09T03:24:41;19.60;99.90
20288;DHT22;10303;51.960;8.372;2022-09-09T03:27:07;19.60;99.90
20288;DHT22;10303;51.960;8.372;2022-09-09T03:29:36;19.60;99.90
20288;DHT22;10303;51.960;8.372;2022-09-09T03:32:04;19.60;99.90
20288;DHT22;10303;51.960;8.372;2022-09-09T03:34:31;19.60;99.90
20288;DHT22;10303;51.960;8.372;2022-09-09T03:36:57;19.60;99.90
20288;DHT22;10303;51.960;8.372;2022-09-09T03:39:24;19.60;99.90
20288;DHT22;10303;51.960;8.372;2022-09-09T03:41:50;19.60;99.90
20288;DHT22;10303;51.960;8.372;2022-09-09T03:44:17;19.60;99.90
20288;DHT22;10303;51.960;8.372;2022-09-09T03:46:43;19.60;99.90
20288;DHT22;10303;51.960;8.372;2022-09-09T03:49:09;19.60;99.90
20288;DHT22;10303;51.960;8.372;2022-09-09T03:51:35;19.60;99.90
20288;DHT22;10303;51.960;8.372;2022-09-09T03:54:02;19.60;99.90
20288;DHT22;10303;51.960;8.372;2022-09-09T03:56:31;19.60;99.90
20288;DHT22;10303;51.960;8.372;2022-09-09T03:58:58;19.60;99.90
20288;DHT22;10303;51.960;8.372;2022-09-09T04:01:26;19.60;99.90
20288;DHT22;10303;51.960;8.372;2022-09-09T04:03:53;19.60;99.90
20288;DHT22;10303;51.960;8.372;2022-09-09T04:06:20;19.60;99.90
20288;DHT22;10303;51.960;8.372;2022-09-09T04:08:47;19.60;99.90
20288;DHT22;10303;51.960;8.372;2022-09-09T04:11:15;19.60;99.90
20288;DHT22;10303;51.960;8.372;2022-09-09T04:13:44;19.60;99.90
20288;DHT22;10303;51.960;8.372;2022-09-09T04:16:12;19.60;99.90
20288;DHT22;10303;51.960;8.372;2022-09-09T04:18:47;19.60;99.90
20288;DHT22;10303;51.960;8.372;2022-09-09T04:43:08;19.50;99.90
20288;DHT22;10303;51.960;8.372;2022-09-09T04:47:10;19.60;99.90
20288;DHT22;10303;51.960;8.372;2022-09-09T04:49:49;19.50;99.90
20288;DHT22;10303;51.960;8.372;2022-09-09T04:52:20;19.60;99.90
20288;DHT22;10303;51.960;8.372;2022-09-09T04:59:21;19.60;99.90
20288;DHT22;10303;51.960;8.372;2022-09-09T05:02:22;19.50;99.90
20288;DHT22;10303;51.960;8.372;2022-09-09T05:04:57;19.40;99.90
20288;DHT22;10303;51.960;8.372;2022-09-09T05:07:27;19.60;99.90
20288;DHT22;10303;51.960;8.372;2022-09-09T05:10:23;19.60;99.90
20288;DHT22;10303;51.960;8.372;2022-09-09T05:13:43;19.60;99.90
20288;DHT22;10303;51.960;8.372;2022-09-09T05:25:57;19.60;99.90
20288;DHT22;10303;51.960;8.372;2022-09-09T05:28:27;19.50;99.90
20288;DHT22;10303;51.960;8.372;2022-09-09T05:31:01;19.60;99.90
20288;DHT22;10303;51.960;8.372;2022-09-09T05:33:34;19.60;99.90
20288;DHT22;10303;51.960;8.372;2022-09-09T05:36:06;19.60;99.90
20288;DHT22;10303;51.960;8.372;2022-09-09T05:38:35;19.60;99.90
20288;DHT22;10303;51.960;8.372;2022-09-09T05:41:08;19.60;99.90
20288;DHT22;10303;51.960;8.372;2022-09-09T05:44:31;19.60;99.90
20288;DHT22;10303;51.960;8.372;2022-09-09T05:48:49;19.60;99.90
20288;DHT22;10303;51.960;8.372;2022-09-09T05:51:24;19.70;99.90
20288;DHT22;10303;51.960;8.372;2022-09-09T05:54:21;19.70;99.90
20288;DHT22;10303;51.960;8.372;2022-09-09T05:56:50;19.70;99.90
20288;DHT22;10303;51.960;8.372;2022-09-09T05:59:20;19.70;99.90
20288;DHT22;10303;51.960;8.372;2022-09-09T06:02:08;19.70;99.90
20288;DHT22;10303;51.960;8.372;2022-09-09T06:04:38;19.70;99.90
20288;DHT22;10303;51.960;8.372;2022-09-09T06:07:06;19.70;99.90
20288;DHT22;10303;51.960;8.372;2022-09-09T06:09:34;19.70;99.90
20288;DHT22;10303;51.960;8.372;2022-09-09T06:12:19;19.80;99.90
20288;DHT22;10303;51.960;8.372;2022-09-09T06:27:32;20.00;99.90
20288;DHT22;10303;51.960;8.372;2022-09-09T06:29:59;20.00;99.90
20288;DHT22;10303;51.960;8.372;2022-09-09T06:32:31;20.00;99.90
20288;DHT22;10303;51.960;8.372;2022-09-09T06:35:27;20.10;99.90
20288;DHT22;10303;51.960;8.372;2022-09-09T06:37:55;20.10;99.90
20288;DHT22;10303;51.960;8.372;2022-09-09T06:40:34;20.20;99.90
20288;DHT22;10303;51.960;8.372;2022-09-09T06:43:33;20.20;99.90
20288;DHT22;10303;51.960;8.372;2022-09-09T07:00:23;20.40;99.90
20288;DHT22;10303;51.960;8.372;2022-09-09T07:02:51;20.50;99.90
20288;DHT22;10303;51.960;8.372;2022-09-09T07:05:17;20.50;99.90
20288;DHT22;10303;51.960;8.372;2022-09-09T07:07:45;20.50;99.90
20288;DHT22;10303;51.960;8.372;2022-09-09T07:10:13;20.60;99.90
20288;DHT22;10303;51.960;8.372;2022-09-09T07:12:40;20.60;99.90
20288;DHT22;10303;51.960;8.372;2022-09-09T07:15:09;20.70;99.90
20288;DHT22;10303;51.960;8.372;2022-09-09T07:17:36;20.70;99.90
20288;DHT22;10303;51.960;8.372;2022-09-09T07:20:02;20.70;99.90
20288;DHT22;10303;51.960;8.372;2022-09-09T07:22:33;20.80;99.90
20288;DHT22;10303;51.960;8.372;2022-09-09T07:25:01;20.80;99.90
20288;DHT22;10303;51.960;8.372;2022-09-09T07:27:28;20.80;99.90
20288;DHT22;10303;51.960;8.372;2022-09-09T07:29:55;20.80;99.90
20288;DHT22;10303;51.960;8.372;2022-09-09T07:32:23;20.90;99.90
20288;DHT22;10303;51.960;8.372;2022-09-09T07:34:52;20.90;99.90
20288;DHT22;10303;51.960;8.372;2022-09-09T07:37:24;20.90;99.90
20288;DHT22;10303;51.960;8.372;2022-09-09T07:39:54;20.60;99.90
20288;DHT22;10303;51.960;8.372;2022-09-09T08:02:00;21.20;99.90
20288;DHT22;10303;51.960;8.372;2022-09-09T08:05:06;21.30;99.90
20288;DHT22;10303;51.960;8.372;2022-09-09T08:07:33;21.40;99.90
20288;DHT22;10303;51.960;8.372;2022-09-09T08:10:25;21.40;99.90
20288;DHT22;10303;51.960;8.372;2022-09-09T08:27:26;21.80;99.90
20288;DHT22;10303;51.960;8.372;2022-09-09T08:29:55;21.90;99.90
20288;DHT22;10303;51.960;8.372;2022-09-09T08:32:23;22.00;99.90
20288;DHT22;10303;51.960;8.372;2022-09-09T08:34:50;22.10;99.90
20288;DHT22;10303;51.960;8.372;2022-09-09T08:37:22;22.20;99.90
20288;DHT22;10303;51.960;8.372;2022-09-09T08:43:12;22.30;99.90
20288;DHT22;10303;51.960;8.372;2022-09-09T08:46:21;22.40;99.90
20288;DHT22;10303;51.960;8.372;2022-09-09T08:56:18;22.60;99.90
20288;DHT22;10303;51.960;8.372;2022-09-09T08:59:03;22.70;99.90
20288;DHT22;10303;51.960;8.372;2022-09-09T09:02:04;22.80;99.90
20288;DHT22;10303;51.960;8.372;2022-09-09T09:11:46;22.80;99.90
20288;DHT22;10303;51.960;8.372;2022-09-09T09:14:36;22.80;99.90
20288;DHT22;10303;51.960;8.372;2022-09-09T09:17:13;22.80;99.90
20288;DHT22;10303;51.960;8.372;2022-09-09T09:19:48;22.80;99.90
20288;DHT22;10303;51.960;8.372;2022-09-09T09:23:21;22.80;99.90
20288;DHT22;10303;51.960;8.372;2022-09-09T09:25:52;22.90;99.90
20288;DHT22;10303;51.960;8.372;2022-09-09T09:28:35;23.00;99.90
20288;DHT22;10303;51.960;8.372;2022-09-09T09:31:15;22.90;99.70
20288;DHT22;10303;51.960;8.372;2022-09-09T09:51:33;24.30;97.60
20288;DHT22;10303;51.960;8.372;2022-09-09T09:54:37;24.50;97.40
20288;DHT22;10303;51.960;8.372;2022-09-09T09:57:14;24.60;96.10
20288;DHT22;10303;51.960;8.372;2022-09-09T09:59:46;24.70;96.40
20288;DHT22;10303;51.960;8.372;2022-09-09T10:02:39;24.90;97.00
20288;DHT22;10303;51.960;8.372;2022-09-09T10:05:25;25.00;94.90
20288;DHT22;10303;51.960;8.372;2022-09-09T10:14:27;25.40;92.50
20288;DHT22;10303;51.960;8.372;2022-09-09T10:17:20;25.50;92.00
20288;DHT22;10303;51.960;8.372;2022-09-09T10:36:24;26.20;88.20
20288;DHT22;10303;51.960;8.372;2022-09-09T10:39:16;26.10;84.70
20288;DHT22;10303;51.960;8.372;2022-09-09T10:42:09;26.20;86.70
20288;DHT22;10303;51.960;8.372;2022-09-09T10:48:19;26.40;83.90
20288;DHT22;10303;51.960;8.372;2022-09-09T10:51:36;26.40;84.10
20288;DHT22;10303;51.960;8.372;2022-09-09T10:54:33;26.50;85.20
20288;DHT22;10303;51.960;8.372;2022-09-09T10:59:53;26.70;86.70
20288;DHT22;10303;51.960;8.372;2022-09-09T11:02:30;26.80;86.20
20288;DHT22;10303;51.960;8.372;2022-09-09T11:05:05;26.90;83.50
20288;DHT22;10303;51.960;8.372;2022-09-09T11:10:45;27.10;79.70
20288;DHT22;10303;51.960;8.372;2022-09-09T11:19:42;27.30;76.50
20288;DHT22;10303;51.960;8.372;2022-09-09T11:22:42;27.40;74.30
20288;DHT22;10303;51.960;8.372;2022-09-09T11:25:31;27.50;76.00
20288;DHT22;10303;51.960;8.372;2022-09-09T11:47:23;27.70;77.00
20288;DHT22;10303;51.960;8.372;2022-09-09T12:05:18;28.30;69.90
20288;DHT22;10303;51.960;8.372;2022-09-09T12:11:08;28.60;67.00
20288;DHT22;10303;51.960;8.372;2022-09-09T12:13:35;28.80;61.80
20288;DHT22;10303;51.960;8.372;2022-09-09T12:16:02;28.90;64.70
20288;DHT22;10303;51.960;8.372;2022-09-09T12:18:36;29.00;64.00
20288;DHT22;10303;51.960;8.372;2022-09-09T12:28:52;29.20;63.90
20288;DHT22;10303;51.960;8.372;2022-09-09T12:32:08;29.30;64.10
20288;DHT22;10303;51.960;8.372;2022-09-09T12:41:23;29.50;63.70
20288;DHT22;10303;51.960;8.372;2022-09-09T12:44:11;29.50;62.50
20288;DHT22;10303;51.960;8.372;2022-09-09T12:48:06;29.40;57.90
20288;DHT22;10303;51.960;8.372;2022-09-09T12:50:59;29.20;58.80
20288;DHT22;10303;51.960;8.372;2022-09-09T12:53:34;29.20;61.70
20288;DHT22;10303;51.960;8.372;2022-09-09T12:56:07;29.10;60.60
20288;DHT22;10303;51.960;8.372;2022-09-09T12:58:38;29.00;59.30
20288;DHT22;10303;51.960;8.372;2022-09-09T13:01:05;29.00;58.90
20288;DHT22;10303;51.960;8.372;2022-09-09T13:03:43;28.90;59.00
20288;DHT22;10303;51.960;8.372;2022-09-09T13:06:13;28.80;57.90
20288;DHT22;10303;51.960;8.372;2022-09-09T13:09:02;28.70;57.80
20288;DHT22;10303;51.960;8.372;2022-09-09T13:11:45;28.40;57.50
20288;DHT22;10303;51.960;8.372;2022-09-09T13:35:28;27.20;63.60
20288;DHT22;10303;51.960;8.372;2022-09-09T13:37:56;27.10;62.80
20288;DHT22;10303;51.960;8.372;2022-09-09T13:40:27;27.00;62.90
20288;DHT22;10303;51.960;8.372;2022-09-09T13:43:05;27.00;63.00
20288;DHT22;10303;51.960;8.372;2022-09-09T13:46:04;26.90;62.70
20288;DHT22;10303;51.960;8.372;2022-09-09T13:48:58;26.90;63.30
20288;DHT22;10303;51.960;8.372;2022-09-09T13:55:02;26.80;62.70
20288;DHT22;10303;51.960;8.372;2022-09-09T13:57:29;26.80;63.50
20288;DHT22;10303;51.960;8.372;2022-09-09T13:59:55;26.80;62.90
20288;DHT22;10303;51.960;8.372;2022-09-09T14:02:22;26.80;62.40
20288;DHT22;10303;51.960;8.372;2022-09-09T14:04:50;26.70;63.10
20288;DHT22;10303;51.960;8.372;2022-09-09T14:07:25;26.70;62.70
20288;DHT22;10303;51.960;8.372;2022-09-09T14:09:53;26.70;62.60
20288;DHT22;10303;51.960;8.372;2022-09-09T14:12:20;26.60;62.90
20288;DHT22;10303;51.960;8.372;2022-09-09T14:14:53;26.60;62.90
20288;DHT22;10303;51.960;8.372;2022-09-09T14:17:59;26.60;62.90
20288;DHT22;10303;51.960;8.372;2022-09-09T14:20:43;26.60;61.40
20288;DHT22;10303;51.960;8.372;2022-09-09T14:23:13;26.50;63.00
20288;DHT22;10303;51.960;8.372;2022-09-09T14:26:03;26.50;62.80
20288;DHT22;10303;51.960;8.372;2022-09-09T14:28:32;26.40;61.00
20288;DHT22;10303;51.960;8.372;2022-09-09T14:31:04;26.50;61.50
20288;DHT22;10303;51.960;8.372;2022-09-09T14:33:31;26.50;61.20
20288;DHT22;10303;51.960;8.372;2022-09-09T14:36:03;26.50;62.80
20288;DHT22;10303;51.960;8.372;2022-09-09T14:38:31;26.40;62.70
20288;DHT22;10303;51.960;8.372;2022-09-09T14:41:02;26.40;62.20
20288;DHT22;10303;51.960;8.372;2022-09-09T14:43:29;26.40;62.00
20288;DHT22;10303;51.960;8.372;2022-09-09T14:46:20;26.40;62.30
20288;DHT22;10303;51.960;8.372;2022-09-09T14:48:46;26.30;62.60
20288;DHT22;10303;51.960;8.372;2022-09-09T14:51:23;26.30;63.20
20288;DHT22;10303;51.960;8.372;2022-09-09T14:53:58;26.20;63.50
20288;DHT22;10303;51.960;8.372;2022-09-09T14:56:28;26.20;64.10
20288;DHT22;10303;51.960;8.372;2022-09-09T14:58:57;26.20;64.20
20288;DHT22;10303;51.960;8.372;2022-09-09T15:01:25;26.10;63.90
20288;DHT22;10303;51.960;8.372;2022-09-09T15:04:20;26.10;64.30
20288;DHT22;10303;51.960;8.372;2022-09-09T15:06:46;26.00;64.50
20288;DHT22;10303;51.960;8.372;2022-09-09T15:09:14;26.00;64.80
20288;DHT22;10303;51.960;8.372;2022-09-09T15:11:41;25.90;64.80
20288;DHT22;10303;51.960;8.372;2022-09-09T15:14:08;25.90;64.80
20288;DHT22;10303;51.960;8.372;2022-09-09T15:16:39;25.80;65.00
20288;DHT22;10303;51.960;8.372;2022-09-09T15:19:07;25.90;65.20
20288;DHT22;10303;51.960;8.372;2022-09-09T15:21:37;25.80;65.40
20288;DHT22;10303;51.960;8.372;2022-09-09T15:24:07;25.80;65.50
20288;DHT22;10303;51.960;8.372;2022-09-09T15:26:34;25.70;65.70
20288;DHT22;10303;51.960;8.372;2022-09-09T15:29:04;25.70;66.70
20288;DHT22;10303;51.960;8.372;2022-09-09T15:31:31;25.60;67.40
20288;DHT22;10303;51.960;8.372;2022-09-09T15:34:10;25.60;67.30
20288;DHT22;10303;51.960;8.372;2022-09-09T15:36:40;25.50;67.50
20288;DHT22;10303;51.960;8.372;2022-09-09T15:39:09;25.50;67.10
20288;DHT22;10303;51.960;8.372;2022-09-09T15:41:42;25.50;67.00
20288;DHT22;10303;51.960;8.372;2022-09-09T15:44:10;25.50;67.10
20288;DHT22;10303;51.960;8.372;2022-09-09T15:46:41;25.40;67.70
20288;DHT22;10303;51.960;8.372;2022-09-09T15:49:16;25.30;67.40
20288;DHT22;10303;51.960;8.372;2022-09-09T15:51:52;25.30;67.90
20288;DHT22;10303;51.960;8.372;2022-09-09T15:54:21;25.20;68.60
20288;DHT22;10303;51.960;8.372;2022-09-09T15:56:57;25.10;68.40
20288;DHT22;10303;51.960;8.372;2022-09-09T15:59:26;25.10;68.40
20288;DHT22;10303;51.960;8.372;2022-09-09T16:01:54;25.00;68.80
20288;DHT22;10303;51.960;8.372;2022-09-09T16:04:22;25.00;69.10
20288;DHT22;10303;51.960;8.372;2022-09-09T16:06:58;25.00;69.30
20288;DHT22;10303;51.960;8.372;2022-09-09T16:09:27;25.00;69.60
20288;DHT22;10303;51.960;8.372;2022-09-09T16:11:59;25.00;69.60
20288;DHT22;10303;51.960;8.372;2022-09-09T16:14:26;24.90;69.80
20288;DHT22;10303;51.960;8.372;2022-09-09T16:16:56;24.90;70.10
20288;DHT22;10303;51.960;8.372;2022-09-09T16:19:22;24.90;70.50
20288;DHT22;10303;51.960;8.372;2022-09-09T16:21:49;24.90;70.10
20288;DHT22;10303;51.960;8.372;2022-09-09T16:24:18;24.90;69.80
20288;DHT22;10303;51.960;8.372;2022-09-09T16:26:50;24.90;70.00
20288;DHT22;10303;51.960;8.372;2022-09-09T16:29:18;24.90;70.30
20288;DHT22;10303;51.960;8.372;2022-09-09T16:31:46;24.90;70.90
20288;DHT22;10303;51.960;8.372;2022-09-09T16:34:13;24.90;71.40
20288;DHT22;10303;51.960;8.372;2022-09-09T16:36:45;24.90;70.60
20288;DHT22;10303;51.960;8.372;2022-09-09T16:39:16;24.90;70.30
20288;DHT22;10303;51.960;8.372;2022-09-09T16:41:45;24.90;70.00
20288;DHT22;10303;51.960;8.372;2022-09-09T16:44:14;24.80;70.00
20288;DHT22;10303;51.960;8.372;2022-09-09T16:46:45;24.80;70.30
20288;DHT22;10303;51.960;8.372;2022-09-09T16:49:14;24.80;70.50
20288;DHT22;10303;51.960;8.372;2022-09-09T16:52:02;24.70;70.70
20288;DHT22;10303;51.960;8.372;2022-09-09T16:54:28;24.70;71.20
20288;DHT22;10303;51.960;8.372;2022-09-09T16:56:56;24.60;71.10
20288;DHT22;10303;51.960;8.372;2022-09-09T16:59:23;24.60;71.30
20288;DHT22;10303;51.960;8.372;2022-09-09T17:01:52;24.50;71.40
20288;DHT22;10303;51.960;8.372;2022-09-09T17:07:34;24.30;71.80
20288;DHT22;10303;51.960;8.372;2022-09-09T17:10:02;24.20;72.90
20288;DHT22;10303;51.960;8.372;2022-09-09T17:12:32;24.20;72.90
20288;DHT22;10303;51.960;8.372;2022-09-09T17:15:54;24.10;73.30
20288;DHT22;10303;51.960;8.372;2022-09-09T17:18:21;24.00;73.70
20288;DHT22;10303;51.960;8.372;2022-09-09T17:31:45;23.60;74.60
20288;DHT22;10303;51.960;8.372;2022-09-09T17:34:13;23.50;75.30
20288;DHT22;10303;51.960;8.372;2022-09-09T17:36:39;23.50;75.40
20288;DHT22;10303;51.960;8.372;2022-09-09T17:39:06;23.40;76.00
20288;DHT22;10303;51.960;8.372;2022-09-09T17:41:38;23.30;76.20
20288;DHT22;10303;51.960;8.372;2022-09-09T17:44:06;23.20;77.00
20288;DHT22;10303;51.960;8.372;2022-09-09T17:46:34;23.10;76.90
20288;DHT22;10303;51.960;8.372;2022-09-09T17:49:08;23.10;77.60
20288;DHT22;10303;51.960;8.372;2022-09-09T17:51:45;23.00;79.00
20288;DHT22;10303;51.960;8.372;2022-09-09T17:54:17;22.90;79.40
20288;DHT22;10303;51.960;8.372;2022-09-09T17:56:47;22.90;80.20
20288;DHT22;10303;51.960;8.372;2022-09-09T17:59:15;22.80;80.30
20288;DHT22;10303;51.960;8.372;2022-09-09T18:01:45;22.70;80.90
20288;DHT22;10303;51.960;8.372;2022-09-09T18:04:20;22.60;81.60
20288;DHT22;10303;51.960;8.372;2022-09-09T18:06:48;22.70;81.90
20288;DHT22;10303;51.960;8.372;2022-09-09T18:09:21;22.60;82.30
20288;DHT22;10303;51.960;8.372;2022-09-09T18:11:52;22.50;82.50
20288;DHT22;10303;51.960;8.372;2022-09-09T18:14:25;22.50;82.70
20288;DHT22;10303;51.960;8.372;2022-09-09T18:16:54;22.40;83.30
20288;DHT22;10303;51.960;8.372;2022-09-09T18:19:26;22.40;83.70
20288;DHT22;10303;51.960;8.372;2022-09-09T18:21:55;22.30;84.00
20288;DHT22;10303;51.960;8.372;2022-09-09T18:24:24;22.30;83.50
20288;DHT22;10303;51.960;8.372;2022-09-09T18:26:51;22.30;83.70
20288;DHT22;10303;51.960;8.372;2022-09-09T18:29:20;22.20;84.10
20288;DHT22;10303;51.960;8.372;2022-09-09T18:31:48;22.10;85.10
20288;DHT22;10303;51.960;8.372;2022-09-09T18:34:16;22.10;84.80
20288;DHT22;10303;51.960;8.372;2022-09-09T18:36:46;22.10;86.60
20288;DHT22;10303;51.960;8.372;2022-09-09T18:39:26;22.00;86.80
20288;DHT22;10303;51.960;8.372;2022-09-09T18:41:55;22.00;86.00
20288;DHT22;10303;51.960;8.372;2022-09-09T18:44:29;22.00;86.10
20288;DHT22;10303;51.960;8.372;2022-09-09T18:46:57;22.00;86.40
20288;DHT22;10303;51.960;8.372;2022-09-09T18:49:23;21.90;86.40
20288;DHT22;10303;51.960;8.372;2022-09-09T18:51:51;21.90;86.60
20288;DHT22;10303;51.960;8.372;2022-09-09T18:54:20;21.90;87.00
20288;DHT22;10303;51.960;8.372;2022-09-09T18:56:48;21.80;87.40
20288;DHT22;10303;51.960;8.372;2022-09-09T18:59:17;21.80;87.40
20288;DHT22;10303;51.960;8.372;2022-09-09T19:01:46;21.80;87.90
20288;DHT22;10303;51.960;8.372;2022-09-09T19:04:13;21.80;88.00
20288;DHT22;10303;51.960;8.372;2022-09-09T19:06:45;21.80;88.40
20288;DHT22;10303;51.960;8.372;2022-09-09T19:09:14;21.70;88.80
20288;DHT22;10303;51.960;8.372;2022-09-09T19:11:46;21.70;89.90
20288;DHT22;10303;51.960;8.372;2022-09-09T19:14:14;21.70;90.00
20288;DHT22;10303;51.960;8.372;2022-09-09T19:16:42;21.60;90.70
20288;DHT22;10303;51.960;8.372;2022-09-09T19:19:22;21.60;90.40
20288;DHT22;10303;51.960;8.372;2022-09-09T19:21:49;21.60;90.90
20288;DHT22;10303;51.960;8.372;2022-09-09T19:24:21;21.60;90.80
20288;DHT22;10303;51.960;8.372;2022-09-09T19:26:52;21.50;91.20
20288;DHT22;10303;51.960;8.372;2022-09-09T19:29:24;21.50;91.20
20288;DHT22;10303;51.960;8.372;2022-09-09T19:31:53;21.50;91.70
20288;DHT22;10303;51.960;8.372;2022-09-09T19:34:21;21.40;91.50
20288;DHT22;10303;51.960;8.372;2022-09-09T19:36:47;21.40;91.60
20288;DHT22;10303;51.960;8.372;2022-09-09T19:39:13;21.30;92.00
20288;DHT22;10303;51.960;8.372;2022-09-09T19:41:40;21.30;92.30
20288;DHT22;10303;51.960;8.372;2022-09-09T19:44:07;21.30;92.70
20288;DHT22;10303;51.960;8.372;2022-09-09T19:46:38;21.30;92.50
20288;DHT22;10303;51.960;8.372;2022-09-09T19:49:08;21.20;92.70
20288;DHT22;10303;51.960;8.372;2022-09-09T19:51:34;21.20;92.70
20288;DHT22;10303;51.960;8.372;2022-09-09T19:54:06;21.20;92.80
20288;DHT22;10303;51.960;8.372;2022-09-09T19:56:36;21.10;93.00
20288;DHT22;10303;51.960;8.372;2022-09-09T19:59:05;21.10;93.10
20288;DHT22;10303;51.960;8.372;2022-09-09T20:01:34;21.10;93.40
20288;DHT22;10303;51.960;8.372;2022-09-09T20:04:04;21.10;93.50
20288;DHT22;10303;51.960;8.372;2022-09-09T20:06:33;21.10;93.60
20288;DHT22;10303;51.960;8.372;2022-09-09T20:09:02;21.10;94.00
20288;DHT22;10303;51.960;8.372;2022-09-09T20:11:30;21.00;94.00
20288;DHT22;10303;51.960;8.372;2022-09-09T20:13:57;21.00;94.50
20288;DHT22;10303;51.960;8.372;2022-09-09T20:16:26;21.00;94.40
20288;DHT22;10303;51.960;8.372;2022-09-09T20:19:01;21.00;94.60
20288;DHT22;10303;51.960;8.372;2022-09-09T20:21:36;21.00;95.10
20288;DHT22;10303;51.960;8.372;2022-09-09T20:24:07;21.00;94.90
20288;DHT22;10303;51.960;8.372;2022-09-09T20:26:35;20.90;94.80
20288;DHT22;10303;51.960;8.372;2022-09-09T20:29:08;20.90;94.90
20288;DHT22;10303;51.960;8.372;2022-09-09T20:31:38;20.90;95.40
20288;DHT22;10303;51.960;8.372;2022-09-09T20:34:06;20.80;95.20
20288;DHT22;10303;51.960;8.372;2022-09-09T20:36:35;20.90;95.30
20288;DHT22;10303;51.960;8.372;2022-09-09T20:41:36;20.90;95.40
20288;DHT22;10303;51.960;8.372;2022-09-09T20:44:10;20.90;95.40
20288;DHT22;10303;51.960;8.372;2022-09-09T20:46:41;20.90;95.60
20288;DHT22;10303;51.960;8.372;2022-09-09T20:49:10;20.80;96.30
20288;DHT22;10303;51.960;8.372;2022-09-09T20:51:37;20.80;95.90
20288;DHT22;10303;51.960;8.372;2022-09-09T20:54:05;20.80;95.90
20288;DHT22;10303;51.960;8.372;2022-09-09T20:56:36;20.80;96.00
20288;DHT22;10303;51.960;8.372;2022-09-09T20:59:11;20.70;96.00
20288;DHT22;10303;51.960;8.372;2022-09-09T21:01:40;20.70;96.30
20288;DHT22;10303;51.960;8.372;2022-09-09T21:04:07;20.70;96.50
20288;DHT22;10303;51.960;8.372;2022-09-09T21:06:34;20.70;96.30
20288;DHT22;10303;51.960;8.372;2022-09-09T21:09:01;20.70;96.50
20288;DHT22;10303;51.960;8.372;2022-09-09T21:11:29;20.60;96.60
20288;DHT22;10303;51.960;8.372;2022-09-09T21:14:03;20.60;97.30
20288;DHT22;10303;51.960;8.372;2022-09-09T21:16:30;20.60;97.00